Time;durP1;ratioP1;P1;durP2;ratioP2;P2;SDS_P1;SDS_P2;PMS_P1;PMS_P2;Temp;Humidity;BMP_temperature;BMP_pressure;BME280_temperature;BME280_humidity;BME280_pressure;Samples;Min_cycle;Max_cycle;Signal;HPM_P1;HPM_P2
2023/03/16 00:02:18;;;;;;;10.15;3.35;;;;;;;;;;5084521;28;20050;-78
2023/03/16 00:04:46;;;;;;;10.73;3.20;;;;;;;;;;5073682;28;20048;-77
2023/03/16 00:07:13;;;;;;;8.07;3.10;;;;;;;;;;5081409;28;20061;-77
2023/03/16 00:09:40;;;;;;;12.07;3.75;;;;;;;;;;5081429;28;20040;-77
2023/03/16 00:12:07;;;;;;;11.15;3.58;;;;;;;;;;5085531;28;20037;-78
2023/03/16 00:14:34;;;;;;;9.68;2.67;;;;;;;;;;5086664;28;20044;-77
2023/03/16 00:17:05;;;;;;;10.00;3.13;;;;;;;;;;5097192;28;20047;-77
2023/03/16 00:19:34;;;;;;;9.77;3.03;;;;;;;;;;5089737;28;20040;-77
2023/03/16 00:22:00;;;;;;;9.10;3.33;;;;;;;;;;5092902;28;20530;-77
2023/03/16 00:24:26;;;;;;;9.60;3.58;;;;;;;;;;5085790;28;20547;-77
2023/03/16 00:26:53;;;;;;;8.98;3.22;;;;;;;;;;5090997;28;20041;-77
2023/03/16 00:29:21;;;;;;;8.65;3.40;;;;;;;;;;5093395;28;20063;-77
2023/03/16 00:31:47;;;;;;;10.45;3.42;;;;;;;;;;5082765;28;20067;-78
2023/03/16 00:34:14;;;;;;;13.25;3.75;;;;;;;;;;5081080;28;20044;-77
2023/03/16 00:36:41;;;;;;;11.43;3.45;;;;;;;;;;5081924;28;20053;-77
2023/03/16 00:39:10;;;;;;;9.23;3.60;;;;;;;;;;5082044;28;20048;-77
2023/03/16 00:41:37;;;;;;;8.85;3.58;;;;;;;;;;5082859;28;20475;-77
2023/03/16 00:44:04;;;;;;;9.90;3.78;;;;;;;;;;5092976;28;20052;-77
2023/03/16 00:46:30;;;;;;;10.93;4.10;;;;;;;;;;5088993;28;20044;-77
2023/03/16 00:48:56;;;;;;;10.52;3.67;;;;;;;;;;5081825;28;20049;-77
2023/03/16 00:51:22;;;;;;;11.10;3.80;;;;;;;;;;5093242;28;20045;-78
2023/03/16 00:53:48;;;;;;;10.52;3.60;;;;;;;;;;5088149;28;20045;-78
2023/03/16 00:56:14;;;;;;;9.75;4.00;;;;;;;;;;5094582;28;20044;-77
2023/03/16 00:58:41;;;;;;;8.73;3.72;;;;;;;;;;5085165;28;20044;-77
2023/03/16 01:01:17;;;;;;;12.85;4.05;;;;;;;;;;5080473;28;20414;-77
2023/03/16 01:03:44;;;;;;;11.20;3.30;;;;;;;;;;5089076;28;20040;-77
2023/03/16 01:06:15;;;;;;;12.38;3.75;;;;;;;;;;5088065;28;20471;-77
2023/03/16 01:08:42;;;;;;;11.40;3.75;;;;;;;;;;5094392;28;20111;-78
2023/03/16 01:11:19;;;;;;;11.07;4.00;;;;;;;;;;5093447;28;20049;-77
2023/03/16 01:13:46;;;;;;;8.77;3.45;;;;;;;;;;5086083;28;20041;-77
2023/03/16 01:16:12;;;;;;;13.00;3.70;;;;;;;;;;5095557;28;20487;-77
2023/03/16 01:18:38;;;;;;;9.85;3.38;;;;;;;;;;5091216;28;20054;-77
2023/03/16 01:21:05;;;;;;;9.70;3.72;;;;;;;;;;5094412;28;20040;-78
2023/03/16 01:23:31;;;;;;;11.55;3.85;;;;;;;;;;5085312;28;20056;-77
2023/03/16 01:25:58;;;;;;;13.18;3.75;;;;;;;;;;5089233;28;20035;-77
2023/03/16 01:28:25;;;;;;;10.63;3.75;;;;;;;;;;5088451;28;20040;-77
2023/03/16 01:30:53;;;;;;;8.40;3.50;;;;;;;;;;5080867;28;20109;-77
2023/03/16 01:33:22;;;;;;;10.60;3.72;;;;;;;;;;5082679;28;20044;-77
2023/03/16 01:36:03;;;;;;;10.20;3.55;;;;;;;;;;5084697;28;20049;-77
2023/03/16 01:38:29;;;;;;;8.25;3.20;;;;;;;;;;5087145;28;20040;-77
2023/03/16 01:40:55;;;;;;;8.30;3.50;;;;;;;;;;5091674;28;20056;-78
2023/03/16 01:43:22;;;;;;;8.75;3.17;;;;;;;;;;5095705;28;20486;-78
2023/03/16 01:46:04;;;;;;;13.60;3.85;;;;;;;;;;5077412;28;20045;-77
2023/03/16 01:48:36;;;;;;;10.85;3.58;;;;;;;;;;5088093;28;20044;-77
2023/03/16 01:51:02;;;;;;;9.60;3.53;;;;;;;;;;5075848;28;20449;-77
2023/03/16 01:53:28;;;;;;;9.40;3.63;;;;;;;;;;5075426;28;20094;-78
2023/03/16 01:55:54;;;;;;;12.65;3.75;;;;;;;;;;5076678;28;20045;-77
2023/03/16 01:58:20;;;;;;;9.32;3.65;;;;;;;;;;5086303;28;20063;-77
2023/03/16 02:00:47;;;;;;;13.55;3.95;;;;;;;;;;5075384;28;20486;-77
2023/03/16 02:03:15;;;;;;;10.77;3.90;;;;;;;;;;5074876;28;20040;-78
2023/03/16 02:05:48;;;;;;;9.90;3.80;;;;;;;;;;5062099;28;20044;-77
2023/03/16 02:08:14;;;;;;;9.75;3.75;;;;;;;;;;5080116;28;20133;-77
2023/03/16 02:10:40;;;;;;;7.68;3.30;;;;;;;;;;5076857;28;20083;-77
2023/03/16 02:13:06;;;;;;;12.40;4.00;;;;;;;;;;5076363;28;20086;-77
2023/03/16 02:15:34;;;;;;;12.07;4.00;;;;;;;;;;5073857;28;20040;-77
2023/03/16 02:18:01;;;;;;;12.82;3.85;;;;;;;;;;5083353;28;20458;-77
2023/03/16 02:20:34;;;;;;;12.10;4.13;;;;;;;;;;5093420;28;20497;-77
2023/03/16 02:23:01;;;;;;;9.30;4.07;;;;;;;;;;5093414;28;20411;-77
2023/03/16 02:25:44;;;;;;;13.00;3.83;;;;;;;;;;5084170;28;20106;-78
2023/03/16 02:28:14;;;;;;;12.27;3.60;;;;;;;;;;5092715;28;20151;-78
2023/03/16 02:30:40;;;;;;;10.75;3.85;;;;;;;;;;5093370;28;20051;-77
2023/03/16 02:33:06;;;;;;;10.40;3.83;;;;;;;;;;5091348;28;20168;-77
2023/03/16 02:35:33;;;;;;;10.90;3.60;;;;;;;;;;5075132;28;20048;-77
2023/03/16 02:38:00;;;;;;;9.57;3.95;;;;;;;;;;5082126;28;20426;-77
2023/03/16 02:40:31;;;;;;;12.68;3.60;;;;;;;;;;5078380;28;20135;-77
2023/03/16 02:43:01;;;;;;;8.75;4.13;;;;;;;;;;5087499;28;20072;-77
2023/03/16 02:45:28;;;;;;;13.68;4.30;;;;;;;;;;5074122;28;20051;-77
2023/03/16 02:47:54;;;;;;;9.13;3.58;;;;;;;;;;5074019;28;20392;-78
2023/03/16 02:50:20;;;;;;;12.25;4.00;;;;;;;;;;5075914;28;20120;-78
2023/03/16 02:52:47;;;;;;;9.27;3.88;;;;;;;;;;5079681;28;20090;-78
2023/03/16 02:55:13;;;;;;;10.68;3.90;;;;;;;;;;5075217;28;20048;-77
2023/03/16 02:57:39;;;;;;;10.05;3.97;;;;;;;;;;5085299;28;20032;-77
2023/03/16 03:00:11;;;;;;;10.85;3.67;;;;;;;;;;5074059;28;20182;-77
2023/03/16 03:02:37;;;;;;;;;;;;;;;;;;5073906;28;20446;-78
2023/03/16 03:05:03;;;;;;;8.63;3.92;;;;;;;;;;5075178;28;20041;-78
2023/03/16 03:07:31;;;;;;;13.77;3.78;;;;;;;;;;5081816;28;20127;-78
2023/03/16 03:09:57;;;;;;;8.45;3.65;;;;;;;;;;5092465;28;20123;-78
2023/03/16 03:12:23;;;;;;;9.60;3.83;;;;;;;;;;5090656;28;20097;-77
2023/03/16 03:14:49;;;;;;;9.13;3.80;;;;;;;;;;5072604;28;20040;-78
2023/03/16 03:17:15;;;;;;;10.50;3.85;;;;;;;;;;5075128;28;20037;-78
2023/03/16 03:19:41;;;;;;;8.60;3.83;;;;;;;;;;5075389;28;20460;-78
2023/03/16 03:22:07;;;;;;;10.68;3.72;;;;;;;;;;5072829;28;20059;-78
2023/03/16 03:24:34;;;;;;;8.45;3.75;;;;;;;;;;5078816;28;20039;-78
2023/03/16 03:27:04;;;;;;;14.70;4.03;;;;;;;;;;5087461;28;20051;-77
2023/03/16 03:29:33;;;;;;;10.75;3.83;;;;;;;;;;5071581;28;20380;-77
2023/03/16 03:32:03;;;;;;;9.88;4.20;;;;;;;;;;5075318;28;20133;-78
2023/03/16 03:34:30;;;;;;;9.82;4.05;;;;;;;;;;5073136;28;20482;-78
2023/03/16 03:36:56;;;;;;;10.95;4.10;;;;;;;;;;5086114;28;20409;-77
2023/03/16 03:39:23;;;;;;;9.88;3.95;;;;;;;;;;5081560;28;20047;-77
2023/03/16 03:41:53;;;;;;;8.48;3.90;;;;;;;;;;5073041;28;20044;-78
2023/03/16 03:44:19;;;;;;;9.50;4.05;;;;;;;;;;5088602;28;20405;-78
2023/03/16 03:46:45;;;;;;;9.77;4.10;;;;;;;;;;5073358;28;20036;-77
2023/03/16 03:49:11;;;;;;;11.82;4.38;;;;;;;;;;5084349;28;20055;-78
2023/03/16 03:51:37;;;;;;;9.82;4.53;;;;;;;;;;5089602;28;21296;-78
2023/03/16 03:54:03;;;;;;;8.57;3.95;;;;;;;;;;5081410;28;20119;-77
2023/03/16 03:56:29;;;;;;;11.75;4.45;;;;;;;;;;5079294;28;20047;-77
2023/03/16 03:58:56;;;;;;;9.93;4.10;;;;;;;;;;5087364;28;20547;-78
2023/03/16 04:01:23;;;;;;;10.30;4.78;;;;;;;;;;5075273;28;20487;-78
2023/03/16 04:03:49;;;;;;;9.80;4.00;;;;;;;;;;5089371;28;20093;-78
2023/03/16 04:06:15;;;;;;;10.40;4.10;;;;;;;;;;5081827;28;20049;-78
2023/03/16 04:08:42;;;;;;;9.63;4.25;;;;;;;;;;5070086;28;20085;-77
2023/03/16 04:11:08;;;;;;;10.32;4.53;;;;;;;;;;5072577;28;20055;-77
2023/03/16 04:13:34;;;;;;;7.93;3.80;;;;;;;;;;5071281;28;20099;-77
2023/03/16 04:16:01;;;;;;;10.90;4.35;;;;;;;;;;5074616;28;20412;-77
2023/03/16 04:18:27;;;;;;;8.70;4.15;;;;;;;;;;5074611;28;20041;-77
2023/03/16 04:20:53;;;;;;;11.52;4.05;;;;;;;;;;5071328;28;20052;-78
2023/03/16 04:23:20;;;;;;;10.05;4.78;;;;;;;;;;5074359;28;20047;-78
2023/03/16 04:25:46;;;;;;;11.23;4.85;;;;;;;;;;5079400;28;20051;-78
2023/03/16 04:28:16;;;;;;;9.60;4.22;;;;;;;;;;5070517;28;20517;-78
2023/03/16 04:30:42;;;;;;;9.75;4.50;;;;;;;;;;5074057;28;20051;-78
2023/03/16 04:33:09;;;;;;;9.30;4.70;;;;;;;;;;5073216;28;20482;-78
2023/03/16 04:35:35;;;;;;;11.77;4.30;;;;;;;;;;5071878;28;20072;-78
2023/03/16 04:38:01;;;;;;;9.27;4.30;;;;;;;;;;5071759;28;20040;-79
2023/03/16 04:40:29;;;;;;;11.40;4.90;;;;;;;;;;5071967;28;20132;-78
2023/03/16 04:42:55;;;;;;;9.68;4.78;;;;;;;;;;5071564;28;20040;-78
2023/03/16 04:45:21;;;;;;;12.43;4.57;;;;;;;;;;5078876;28;20109;-77
2023/03/16 04:47:48;;;;;;;10.35;5.20;;;;;;;;;;5071188;28;20048;-77
2023/03/16 04:50:14;;;;;;;8.95;5.03;;;;;;;;;;5072852;28;20056;-78
2023/03/16 04:52:41;;;;;;;10.35;5.03;;;;;;;;;;5071327;28;20478;-78
2023/03/16 04:55:07;;;;;;;9.50;4.88;;;;;;;;;;5071871;28;20037;-78
2023/03/16 04:57:33;;;;;;;9.25;4.80;;;;;;;;;;5079705;28;20040;-77
2023/03/16 05:00:00;;;;;;;10.05;4.68;;;;;;;;;;5072727;28;20517;-77
2023/03/16 05:02:26;;;;;;;11.63;5.13;;;;;;;;;;5079847;28;20094;-78
2023/03/16 05:04:52;;;;;;;10.38;5.45;;;;;;;;;;5071661;28;20158;-78
2023/03/16 05:07:18;;;;;;;10.43;5.05;;;;;;;;;;5081837;28;20071;-77
2023/03/16 05:09:45;;;;;;;9.23;5.30;;;;;;;;;;5071364;28;20044;-78
2023/03/16 05:12:11;;;;;;;12.07;5.35;;;;;;;;;;5079491;28;20049;-78
2023/03/16 05:14:37;;;;;;;9.63;4.68;;;;;;;;;;5084868;28;20073;-78
2023/03/16 05:17:04;;;;;;;11.52;5.70;;;;;;;;;;5079044;28;20054;-77
2023/03/16 05:19:30;;;;;;;10.38;5.30;;;;;;;;;;5054766;28;20380;-78
2023/03/16 05:21:56;;;;;;;10.18;5.07;;;;;;;;;;5072756;28;20047;-77
2023/03/16 05:24:22;;;;;;;10.30;5.22;;;;;;;;;;5091910;28;20532;-78
2023/03/16 05:26:48;;;;;;;9.63;5.40;;;;;;;;;;5073902;28;20124;-77
2023/03/16 05:29:15;;;;;;;13.80;5.15;;;;;;;;;;5080451;28;20044;-78
2023/03/16 05:31:41;;;;;;;9.80;4.72;;;;;;;;;;5079953;28;20044;-77
2023/03/16 05:34:07;;;;;;;13.25;5.20;;;;;;;;;;5081456;28;20040;-77
2023/03/16 05:36:35;;;;;;;10.05;5.25;;;;;;;;;;5079721;28;20040;-78
2023/03/16 05:39:01;;;;;;;11.98;5.28;;;;;;;;;;5070437;28;20102;-78
2023/03/16 05:41:27;;;;;;;8.40;4.55;;;;;;;;;;5069647;28;20568;-79
2023/03/16 05:43:53;;;;;;;11.07;5.22;;;;;;;;;;5087174;28;20051;-78
2023/03/16 05:46:19;;;;;;;12.38;5.43;;;;;;;;;;5078918;28;20067;-78
2023/03/16 05:48:45;;;;;;;13.45;5.03;;;;;;;;;;5071076;28;20071;-78
2023/03/16 05:51:13;;;;;;;9.32;4.85;;;;;;;;;;5074659;28;20055;-78
2023/03/16 05:53:39;;;;;;;9.40;4.90;;;;;;;;;;5071446;28;20398;-78
2023/03/16 05:56:05;;;;;;;8.88;4.88;;;;;;;;;;5086022;28;20460;-78
2023/03/16 05:58:34;;;;;;;8.27;5.03;;;;;;;;;;5074555;28;20586;-78
2023/03/16 06:01:00;;;;;;;9.23;5.28;;;;;;;;;;5081981;28;20045;-78
2023/03/16 06:03:26;;;;;;;13.77;5.20;;;;;;;;;;5074431;28;20049;-77
2023/03/16 06:05:53;;;;;;;10.95;5.40;;;;;;;;;;5091878;28;20464;-78
2023/03/16 06:08:19;;;;;;;10.18;4.93;;;;;;;;;;5079988;28;20055;-78
2023/03/16 06:10:48;;;;;;;10.73;5.00;;;;;;;;;;5057546;28;20048;-78
2023/03/16 06:13:14;;;;;;;10.23;4.90;;;;;;;;;;5073536;28;20150;-78
2023/03/16 06:15:40;;;;;;;9.77;4.45;;;;;;;;;;5077397;28;20055;-78
2023/03/16 06:18:07;;;;;;;12.02;5.30;;;;;;;;;;5073594;28;20044;-77
2023/03/16 06:20:33;;;;;;;10.45;4.88;;;;;;;;;;5074909;28;20051;-78
2023/03/16 06:22:59;;;;;;;13.60;5.82;;;;;;;;;;5074697;28;20052;-77
2023/03/16 06:25:25;;;;;;;9.63;4.97;;;;;;;;;;5073347;28;20449;-77
2023/03/16 06:27:51;;;;;;;10.75;4.97;;;;;;;;;;5074981;28;20040;-78
2023/03/16 06:30:18;;;;;;;9.27;4.70;;;;;;;;;;5081373;28;20483;-77
2023/03/16 06:32:44;;;;;;;11.70;5.55;;;;;;;;;;5076397;28;20494;-78
2023/03/16 06:35:11;;;;;;;10.82;4.97;;;;;;;;;;5078933;28;20127;-78
2023/03/16 06:37:37;;;;;;;10.15;4.82;;;;;;;;;;5074099;28;20041;-78
2023/03/16 06:40:03;;;;;;;11.23;4.95;;;;;;;;;;5077142;28;20478;-78
2023/03/16 06:42:29;;;;;;;8.82;4.60;;;;;;;;;;5083321;28;20549;-78
2023/03/16 06:44:55;;;;;;;8.95;5.07;;;;;;;;;;5073764;28;20051;-78
2023/03/16 06:47:21;;;;;;;10.38;5.03;;;;;;;;;;5082687;28;20044;-78
2023/03/16 06:49:49;;;;;;;9.13;4.80;;;;;;;;;;5081535;28;20390;-78
2023/03/16 06:52:15;;;;;;;9.82;4.53;;;;;;;;;;5073574;28;20052;-78
2023/03/16 06:54:41;;;;;;;9.77;4.65;;;;;;;;;;5083013;28;20411;-77
2023/03/16 06:57:08;;;;;;;10.88;4.57;;;;;;;;;;5090984;28;20708;-77
2023/03/16 06:59:34;;;;;;;10.32;5.10;;;;;;;;;;5074296;28;20056;-77
2023/03/16 07:02:00;;;;;;;9.82;4.95;;;;;;;;;;5074390;28;20590;-78
2023/03/16 07:04:26;;;;;;;9.70;4.78;;;;;;;;;;5073228;28;20063;-78
2023/03/16 07:06:52;;;;;;;10.13;5.10;;;;;;;;;;5079030;28;20090;-78
2023/03/16 07:09:18;;;;;;;10.43;5.38;;;;;;;;;;5080209;28;20051;-78
2023/03/16 07:11:45;;;;;;;8.48;4.80;;;;;;;;;;5077640;28;20049;-79
2023/03/16 07:14:11;;;;;;;8.15;4.55;;;;;;;;;;5082152;28;20070;-78
2023/03/16 07:16:37;;;;;;;10.32;4.95;;;;;;;;;;5078452;28;20158;-78
2023/03/16 07:19:03;;;;;;;12.52;4.80;;;;;;;;;;5090788;28;20049;-78
2023/03/16 07:21:37;;;;;;;9.48;4.60;;;;;;;;;;5091863;28;20061;-79
2023/03/16 07:24:04;;;;;;;10.73;4.68;;;;;;;;;;5079304;28;20055;-78
2023/03/16 07:26:31;;;;;;;9.20;4.60;;;;;;;;;;5073345;28;20162;-78
2023/03/16 07:28:58;;;;;;;8.35;4.65;;;;;;;;;;5073220;28;20494;-78
2023/03/16 07:31:24;;;;;;;10.38;4.82;;;;;;;;;;5076989;28;20045;-79
2023/03/16 07:33:50;;;;;;;8.80;4.05;;;;;;;;;;5083608;28;20059;-79
2023/03/16 07:36:17;;;;;;;9.30;4.75;;;;;;;;;;5082787;28;20074;-78
2023/03/16 07:38:43;;;;;;;11.93;4.82;;;;;;;;;;5085678;28;20162;-78
2023/03/16 07:41:09;;;;;;;9.38;4.63;;;;;;;;;;5072833;28;20045;-78
2023/03/16 07:43:35;;;;;;;10.65;5.07;;;;;;;;;;5073019;28;20071;-78
2023/03/16 07:46:01;;;;;;;9.80;4.43;;;;;;;;;;5074584;28;20414;-79
2023/03/16 07:48:27;;;;;;;9.93;4.72;;;;;;;;;;5080300;28;20032;-78
2023/03/16 07:50:53;;;;;;;9.63;4.85;;;;;;;;;;5076070;28;20474;-78
2023/03/16 07:53:20;;;;;;;10.55;4.65;;;;;;;;;;5082679;28;20036;-78
2023/03/16 07:55:46;;;;;;;9.07;5.00;;;;;;;;;;5077280;28;20045;-78
2023/03/16 07:58:12;;;;;;;10.68;5.00;;;;;;;;;;5058690;28;20055;-78
2023/03/16 08:00:39;;;;;;;9.50;4.80;;;;;;;;;;5079929;28;20063;-78
2023/03/16 08:03:06;;;;;;;10.55;4.53;;;;;;;;;;5081339;28;20055;-78
2023/03/16 08:05:32;;;;;;;8.15;4.32;;;;;;;;;;5073953;28;20058;-78
2023/03/16 08:08:01;;;;;;;13.65;4.93;;;;;;;;;;5072284;28;20064;-78
2023/03/16 08:10:27;;;;;;;9.52;5.40;;;;;;;;;;5053905;28;20166;-79
2023/03/16 08:12:53;;;;;;;10.05;4.63;;;;;;;;;;5072816;28;20562;-78
2023/03/16 08:15:20;;;;;;;8.15;4.40;;;;;;;;;;5072989;28;20059;-78
2023/03/16 08:17:46;;;;;;;11.15;5.10;;;;;;;;;;5073114;28;20049;-78
2023/03/16 08:20:14;;;;;;;11.15;4.97;;;;;;;;;;5076277;28;20048;-79
2023/03/16 08:22:45;;;;;;;9.25;4.78;;;;;;;;;;5089347;28;20051;-79
2023/03/16 08:25:11;;;;;;;10.07;4.25;;;;;;;;;;5093138;28;20047;-78
2023/03/16 08:27:37;;;;;;;8.15;4.72;;;;;;;;;;5076221;28;20048;-78
2023/03/16 08:30:10;;;;;;;9.05;4.75;;;;;;;;;;5072912;28;20040;-78
2023/03/16 08:32:38;;;;;;;9.88;4.97;;;;;;;;;;5073146;28;20049;-78
2023/03/16 08:35:04;;;;;;;8.98;4.60;;;;;;;;;;5073378;28;20050;-78
2023/03/16 08:37:30;;;;;;;10.32;5.07;;;;;;;;;;5079393;28;20051;-78
2023/03/16 08:39:59;;;;;;;10.45;4.72;;;;;;;;;;5092869;28;20505;-78
2023/03/16 08:42:25;;;;;;;10.98;5.00;;;;;;;;;;5073570;28;20078;-78
2023/03/16 08:44:53;;;;;;;9.30;5.05;;;;;;;;;;5072483;28;20060;-78
2023/03/16 08:47:20;;;;;;;11.98;5.18;;;;;;;;;;5072682;28;20045;-77
2023/03/16 08:49:46;;;;;;;8.38;4.63;;;;;;;;;;5077482;28;20515;-78
2023/03/16 08:52:13;;;;;;;10.88;5.38;;;;;;;;;;5077022;28;20052;-78
2023/03/16 08:54:40;;;;;;;10.77;4.90;;;;;;;;;;5077055;28;20048;-78
2023/03/16 08:57:08;;;;;;;9.35;5.15;;;;;;;;;;5072334;28;20059;-78
2023/03/16 08:59:34;;;;;;;10.23;5.30;;;;;;;;;;5073833;28;20127;-78
2023/03/16 09:02:00;;;;;;;10.13;4.63;;;;;;;;;;5087361;28;20099;-79
2023/03/16 09:04:27;;;;;;;11.15;5.03;;;;;;;;;;5080007;28;20036;-79
2023/03/16 09:06:53;;;;;;;11.52;5.10;;;;;;;;;;5086910;28;20553;-78
2023/03/16 09:09:20;;;;;;;9.38;4.85;;;;;;;;;;5074288;28;20052;-78
2023/03/16 09:11:48;;;;;;;10.23;5.45;;;;;;;;;;5075920;28;20052;-78
2023/03/16 09:14:14;;;;;;;9.30;5.20;;;;;;;;;;5085301;28;20072;-78
2023/03/16 09:16:40;;;;;;;10.55;5.65;;;;;;;;;;5083860;28;20057;-78
2023/03/16 09:19:06;;;;;;;10.10;5.25;;;;;;;;;;5084510;28;20044;-78
2023/03/16 09:21:35;;;;;;;10.95;5.68;;;;;;;;;;5072654;28;20055;-78
2023/03/16 09:24:01;;;;;;;10.45;5.88;;;;;;;;;;5074611;28;20101;-78
2023/03/16 09:26:27;;;;;;;8.95;5.03;;;;;;;;;;5071884;28;20055;-78
2023/03/16 09:28:54;;;;;;;8.77;5.30;;;;;;;;;;5071776;28;20049;-77
2023/03/16 09:31:21;;;;;;;12.75;5.95;;;;;;;;;;5078599;28;20047;-77
2023/03/16 09:33:47;;;;;;;11.75;5.97;;;;;;;;;;5094336;28;20406;-77
2023/03/16 09:36:14;;;;;;;11.02;5.32;;;;;;;;;;5077895;28;20166;-77
2023/03/16 09:38:41;;;;;;;8.95;6.05;;;;;;;;;;5085696;28;20048;-78
2023/03/16 09:41:22;;;;;;;9.00;5.60;;;;;;;;;;5093573;28;20595;-78
2023/03/16 09:44:03;;;;;;;10.63;5.82;;;;;;;;;;5074990;28;20486;-78
2023/03/16 09:46:37;;;;;;;9.95;6.38;;;;;;;;;;5085299;28;20094;-78
2023/03/16 09:49:03;;;;;;;10.10;5.93;;;;;;;;;;5079092;28;20079;-78
2023/03/16 09:51:38;;;;;;;9.68;5.40;;;;;;;;;;5074723;28;20048;-77
2023/03/16 09:54:08;;;;;;;9.43;6.18;;;;;;;;;;5089744;28;20044;-77
2023/03/16 09:56:40;;;;;;;10.55;5.70;;;;;;;;;;5075323;28;20044;-78
2023/03/16 09:59:12;;;;;;;10.60;5.88;;;;;;;;;;5075129;28;20052;-78
2023/03/16 10:01:52;;;;;;;10.15;6.10;;;;;;;;;;5074394;28;20123;-77
2023/03/16 10:04:28;;;;;;;11.83;5.87;;;;;;;;;;5079042;28;20036;-77
2023/03/16 10:07:03;;;;;;;12.13;5.97;;;;;;;;;;5077489;28;20071;-77
2023/03/16 10:09:37;;;;;;;11.82;5.65;;;;;;;;;;5074114;28;20475;-77
2023/03/16 10:12:04;;;;;;;10.70;6.13;;;;;;;;;;5086022;28;20059;-77
2023/03/16 10:14:33;;;;;;;9.30;6.30;;;;;;;;;;5089407;28;20055;-77
2023/03/16 10:16:59;;;;;;;12.30;6.50;;;;;;;;;;5079273;28;20467;-77
2023/03/16 10:19:26;;;;;;;11.23;6.55;;;;;;;;;;5078184;28;20055;-77
2023/03/16 10:21:54;;;;;;;11.60;6.45;;;;;;;;;;5074960;28;20052;-77
2023/03/16 10:24:38;;;;;;;12.88;6.40;;;;;;;;;;5082379;28;20105;-77
2023/03/16 10:27:06;;;;;;;10.77;5.97;;;;;;;;;;5081224;28;20052;-77
2023/03/16 10:29:35;;;;;;;9.52;6.03;;;;;;;;;;5081493;28;20044;-77
2023/03/16 10:32:13;;;;;;;9.20;6.18;;;;;;;;;;5082123;28;20064;-77
2023/03/16 10:34:40;;;;;;;10.90;5.82;;;;;;;;;;5077336;28;20494;-77
2023/03/16 10:37:08;;;;;;;9.88;5.80;;;;;;;;;;5077319;28;20064;-78
2023/03/16 10:39:41;;;;;;;8.98;6.18;;;;;;;;;;5074139;28;20127;-78
2023/03/16 10:42:14;;;;;;;11.52;6.60;;;;;;;;;;5074604;28;20052;-78
2023/03/16 10:44:40;;;;;;;11.77;6.05;;;;;;;;;;5073982;28;20056;-78
2023/03/16 10:47:07;;;;;;;12.15;6.25;;;;;;;;;;5074270;28;20052;-78
2023/03/16 10:49:40;;;;;;;9.20;5.80;;;;;;;;;;5083356;28;20074;-78
2023/03/16 10:52:12;;;;;;;13.02;6.20;;;;;;;;;;5094585;28;20059;-78
2023/03/16 10:54:39;;;;;;;10.30;5.32;;;;;;;;;;5086957;28;20090;-78
2023/03/16 10:57:24;;;;;;;9.00;5.65;;;;;;;;;;5083944;28;20040;-78
2023/03/16 10:59:51;;;;;;;13.48;5.68;;;;;;;;;;5074769;28;20041;-78
2023/03/16 11:02:19;;;;;;;12.05;5.63;;;;;;;;;;5072455;28;20101;-78
2023/03/16 11:04:46;;;;;;;12.68;5.60;;;;;;;;;;5073038;28;20049;-78
2023/03/16 11:07:20;;;;;;;10.15;5.75;;;;;;;;;;5093093;28;20052;-77
2023/03/16 11:09:46;;;;;;;10.88;6.05;;;;;;;;;;5092156;28;20060;-77
2023/03/16 11:12:31;;;;;;;11.13;5.68;;;;;;;;;;5073732;28;20083;-77
2023/03/16 11:15:17;;;;;;;9.43;5.28;;;;;;;;;;5072168;28;20048;-77
2023/03/16 11:17:45;;;;;;;8.10;5.47;;;;;;;;;;5090156;28;20044;-77
2023/03/16 11:20:16;;;;;;;12.15;5.38;;;;;;;;;;5092030;28;20051;-78
2023/03/16 11:22:47;;;;;;;10.40;5.47;;;;;;;;;;5093984;28;20509;-77
2023/03/16 11:25:25;;;;;;;9.95;5.97;;;;;;;;;;5093927;28;20127;-78
2023/03/16 11:27:51;;;;;;;8.93;5.40;;;;;;;;;;5087473;28;20112;-78
2023/03/16 11:30:34;;;;;;;10.15;5.68;;;;;;;;;;5091956;28;20079;-78
2023/03/16 11:33:00;;;;;;;13.45;6.03;;;;;;;;;;5084729;28;20246;-78
2023/03/16 11:35:38;;;;;;;9.82;5.60;;;;;;;;;;5073378;28;20055;-78
2023/03/16 11:38:10;;;;;;;10.95;5.57;;;;;;;;;;5073152;28;20051;-78
2023/03/16 11:40:54;;;;;;;10.27;5.55;;;;;;;;;;5086406;28;20052;-78
2023/03/16 11:43:36;;;;;;;9.20;5.28;;;;;;;;;;5093576;28;20043;-78
2023/03/16 11:46:11;;;;;;;9.02;5.22;;;;;;;;;;5081361;28;20549;-78
2023/03/16 11:48:37;;;;;;;11.15;5.60;;;;;;;;;;5076202;28;20053;-78
2023/03/16 11:51:13;;;;;;;10.30;4.63;;;;;;;;;;5073068;28;20060;-77
2023/03/16 11:53:47;;;;;;;9.60;5.10;;;;;;;;;;5072425;28;20055;-77
2023/03/16 11:56:28;;;;;;;10.45;5.25;;;;;;;;;;5073654;28;20048;-77
2023/03/16 11:58:54;;;;;;;;;;;;;;;;;;5072444;28;20059;-77
2023/03/16 12:01:24;;;;;;;9.20;4.43;;;;;;;;;;5075657;28;19960;-77
2023/03/16 12:03:57;;;;;;;10.18;4.50;;;;;;;;;;5083154;28;20122;-77
2023/03/16 12:06:30;;;;;;;9.60;5.45;;;;;;;;;;5074438;28;20051;-77
2023/03/16 12:09:15;;;;;;;10.30;4.85;;;;;;;;;;5078963;28;20521;-77
2023/03/16 12:11:48;;;;;;;9.63;4.80;;;;;;;;;;5090106;28;20040;-77
2023/03/16 12:14:24;;;;;;;9.30;4.88;;;;;;;;;;5078270;28;20052;-77
2023/03/16 12:17:02;;;;;;;10.35;5.03;;;;;;;;;;5073510;28;20048;-77
2023/03/16 12:19:37;;;;;;;9.45;5.00;;;;;;;;;;5073073;28;20437;-77
2023/03/16 12:22:07;;;;;;;11.82;5.10;;;;;;;;;;5072678;28;20053;-77
2023/03/16 12:24:36;;;;;;;7.97;4.68;;;;;;;;;;5081481;28;20063;-77
2023/03/16 12:27:02;;;;;;;8.52;4.45;;;;;;;;;;5081685;28;20063;-78
2023/03/16 12:29:33;;;;;;;8.95;4.20;;;;;;;;;;5069858;28;20040;-78
2023/03/16 12:32:07;;;;;;;8.38;4.07;;;;;;;;;;5086283;28;20067;-78
2023/03/16 12:34:52;;;;;;;9.15;4.57;;;;;;;;;;5073891;28;20060;-78
2023/03/16 12:37:42;;;;;;;9.95;4.78;;;;;;;;;;5077178;28;20074;-78
2023/03/16 12:40:28;;;;;;;9.38;4.72;;;;;;;;;;5076255;28;20117;-78
2023/03/16 12:43:00;;;;;;;11.40;4.75;;;;;;;;;;5062835;28;20080;-77
2023/03/16 12:45:40;;;;;;;10.20;4.53;;;;;;;;;;5071897;28;20056;-77
2023/03/16 12:48:06;;;;;;;10.10;4.80;;;;;;;;;;5086647;28;20052;-78
2023/03/16 12:50:33;;;;;;;9.52;4.53;;;;;;;;;;5083698;28;20048;-77
2023/03/16 12:52:59;;;;;;;10.05;4.63;;;;;;;;;;5080140;28;20509;-77
2023/03/16 12:55:26;;;;;;;9.45;5.00;;;;;;;;;;5084459;28;20048;-77
2023/03/16 12:58:01;;;;;;;8.82;4.32;;;;;;;;;;5080795;28;20461;-78
2023/03/16 13:00:34;;;;;;;9.43;4.82;;;;;;;;;;5086296;28;20071;-77
2023/03/16 13:03:01;;;;;;;9.13;4.78;;;;;;;;;;5072094;28;20064;-77
2023/03/16 13:05:37;;;;;;;7.35;4.40;;;;;;;;;;5086074;28;20040;-77
2023/03/16 13:08:12;;;;;;;8.70;4.47;;;;;;;;;;5094188;28;20060;-77
2023/03/16 13:10:38;;;;;;;8.82;4.50;;;;;;;;;;5085556;28;20101;-77
2023/03/16 13:13:10;;;;;;;10.18;4.32;;;;;;;;;;5076047;28;20045;-77
2023/03/16 13:15:38;;;;;;;8.35;4.10;;;;;;;;;;5076785;28;20059;-77
2023/03/16 13:18:16;;;;;;;9.68;4.28;;;;;;;;;;5075118;28;20044;-77
2023/03/16 13:20:55;;;;;;;8.65;4.13;;;;;;;;;;5075860;28;20056;-77
2023/03/16 13:23:26;;;;;;;6.72;4.18;;;;;;;;;;5088994;28;20138;-77
2023/03/16 13:26:10;;;;;;;9.73;4.30;;;;;;;;;;5095867;28;20079;-77
2023/03/16 13:28:37;;;;;;;8.93;4.22;;;;;;;;;;5093425;28;20064;-77
2023/03/16 13:31:05;;;;;;;9.40;4.13;;;;;;;;;;5083278;28;20044;-77
2023/03/16 13:33:32;;;;;;;8.63;4.15;;;;;;;;;;5084797;28;20453;-77
2023/03/16 13:35:59;;;;;;;7.72;4.00;;;;;;;;;;5085562;28;20056;-77
2023/03/16 13:38:27;;;;;;;7.10;3.85;;;;;;;;;;5079728;28;20044;-78
2023/03/16 13:40:55;;;;;;;10.15;4.10;;;;;;;;;;5075056;28;20076;-77
2023/03/16 13:43:24;;;;;;;6.78;3.55;;;;;;;;;;5076654;28;20177;-77
2023/03/16 13:45:50;;;;;;;9.20;4.57;;;;;;;;;;5074943;28;20101;-77
2023/03/16 13:48:17;;;;;;;9.45;3.63;;;;;;;;;;5074965;28;20055;-77
2023/03/16 13:50:44;;;;;;;7.38;3.65;;;;;;;;;;5082135;28;20048;-77
2023/03/16 13:53:15;;;;;;;6.80;3.70;;;;;;;;;;5074674;28;20124;-77
2023/03/16 13:55:41;;;;;;;;;;;;;;;;;;5075130;28;20053;-77
2023/03/16 13:58:19;;;;;;;8.30;3.25;;;;;;;;;;5086174;28;20412;-77
2023/03/16 14:00:45;;;;;;;8.93;3.53;;;;;;;;;;5083195;28;20036;-77
2023/03/16 14:03:16;;;;;;;7.68;3.42;;;;;;;;;;5074266;28;20058;-77
2023/03/16 14:05:43;;;;;;;7.10;4.20;;;;;;;;;;5084188;28;20428;-77
2023/03/16 14:08:16;;;;;;;9.65;3.80;;;;;;;;;;5079185;28;20494;-77
2023/03/16 14:10:43;;;;;;;6.47;3.30;;;;;;;;;;5082803;28;20051;-77
2023/03/16 14:13:34;;;;;;;7.55;3.60;;;;;;;;;;5087587;28;20529;-77
2023/03/16 14:16:01;;;;;;;9.75;3.70;;;;;;;;;;5074245;28;20132;-77
2023/03/16 14:18:32;;;;;;;6.40;3.10;;;;;;;;;;5076333;28;20139;-78
2023/03/16 14:20:58;;;;;;;9.07;3.60;;;;;;;;;;5075476;28;20076;-78
2023/03/16 14:23:36;;;;;;;6.55;3.08;;;;;;;;;;5074259;28;20067;-78
2023/03/16 14:26:04;;;;;;;6.63;3.45;;;;;;;;;;5074577;28;20052;-77
2023/03/16 14:28:31;;;;;;;7.05;2.95;;;;;;;;;;5082010;28;20051;-78
2023/03/16 14:31:09;;;;;;;8.68;3.28;;;;;;;;;;5074299;28;20047;-78
2023/03/16 14:33:38;;;;;;;7.15;2.90;;;;;;;;;;5080629;28;20111;-78
2023/03/16 14:36:31;;;;;;;6.15;2.95;;;;;;;;;;5087968;28;20054;-78
2023/03/16 14:38:57;;;;;;;7.88;3.17;;;;;;;;;;5079021;28;20044;-78
2023/03/16 14:41:27;;;;;;;6.60;2.75;;;;;;;;;;5093374;28;20052;-78
2023/03/16 14:43:56;;;;;;;6.30;2.55;;;;;;;;;;5085770;28;20049;-78
2023/03/16 14:46:28;;;;;;;7.00;2.47;;;;;;;;;;5088988;28;20040;-78
2023/03/16 14:49:07;;;;;;;7.53;3.17;;;;;;;;;;5081029;28;20037;-78